Airfield :
LOGIN :

Register | Disclaimer

   EN    FR    IT 

 










Legend :    VFR   Marginal VFR   IFR   Intensive IFR   Very Intensive IFR
Visi :
Ceiling :
>= 8 km
>= 3000ft
5 to 8 km
1000 to 3000 ft
1500m to 5 km
500 to 1000 ft
800 to 1500m
200 to 500 ft
< 800m
< 200 ft
Symbols :   Thunderstorms  Fog  Heavy snow  Heavy precipitations  Wind > 20 kt
SIGMETs :     Misc.  Thunderstorms  Icing  Turbulence  Mountain Waves  Volcanic Ashes






- Airport Elevation : 80 ft
- IATA code : LPL


EGGP - Liverpool John Lennon

CURRENT METAR :
  • 231750Z 17013KT 9999 BKN036 BKN039 12/06 Q1019

EXPIRED METARs :
  • 231720Z 17015G26KT 9999 BKN036 OVC041 12/07 Q1019
  • 231650Z 17015KT 9999 BKN036 OVC043 12/07 Q1019
  • 231620Z 17014KT 9999 SCT034 BKN036 12/07 Q1019
  • 231550Z 17014KT 9999 SCT034 BKN036 12/07 Q1019
  • 231520Z 18012KT 9999 SCT034 BKN036 12/07 Q1020

TAF TAF EGGP
Valid from the 23 at 18:00 until the 24 at 18:00 UTC


231655Z 2318/2418 17012KT 9999 SCT035
PROB40
TEMPO 2400/2411 18015G25KT
TEMPO 2405/2410 6000 -RADZ BKN012
PROB30
TEMPO 2412/2418 7000 SHRA
ATIS : +44 151 907 2000 (option 5 or ext 5150)
Met : +44 871 750 5150



MET'MAP, your aeronautical weather chart ! - Copyright ORBIFLY December 2007 - Disclaimer

ORBIFLY MET'MAP TEAM :

Programming & Development : Alexandra Zaïnal
Concept & original design : Baudouin d'Aumeries
Assistance for programming : Marc-Olivier Méhu
Technical & hardware support : Manuel Goepfert

Contact : metmap@orbifly.com




SOURCES & CREDITS :

   NOAA